sensor_id;sensor_type;location;lat;lon;timestamp;P1;durP1;ratioP1;P2;durP2;ratioP2
64550;SDS011;74341;44.510;-123.270;2024-02-23T00:01:27;0.25;;;0.25;;
64550;SDS011;74341;44.510;-123.270;2024-02-23T00:03:54;0.25;;;0.25;;
64550;SDS011;74341;44.510;-123.270;2024-02-23T00:06:21;0.40;;;0.40;;
64550;SDS011;74341;44.510;-123.270;2024-02-23T00:08:53;1.92;;;0.60;;
64550;SDS011;74341;44.510;-123.270;2024-02-23T00:11:20;1.85;;;0.70;;
64550;SDS011;74341;44.510;-123.270;2024-02-23T00:13:47;0.73;;;0.55;;
64550;SDS011;74341;44.510;-123.270;2024-02-23T00:16:13;1.85;;;0.50;;
64550;SDS011;74341;44.510;-123.270;2024-02-23T00:18:39;0.40;;;0.40;;
64550;SDS011;74341;44.510;-123.270;2024-02-23T00:21:06;0.52;;;0.47;;
64550;SDS011;74341;44.510;-123.270;2024-02-23T00:30:50;0.60;;;0.60;;
64550;SDS011;74341;44.510;-123.270;2024-02-23T00:33:16;1.00;;;0.40;;
64550;SDS011;74341;44.510;-123.270;2024-02-23T00:35:43;0.38;;;0.38;;
64550;SDS011;74341;44.510;-123.270;2024-02-23T00:38:10;0.90;;;0.70;;
64550;SDS011;74341;44.510;-123.270;2024-02-23T00:40:36;0.80;;;0.73;;
64550;SDS011;74341;44.510;-123.270;2024-02-23T00:43:04;0.55;;;0.55;;
64550;SDS011;74341;44.510;-123.270;2024-02-23T00:45:30;1.38;;;0.50;;
64550;SDS011;74341;44.510;-123.270;2024-02-23T00:47:56;0.95;;;0.73;;
64550;SDS011;74341;44.510;-123.270;2024-02-23T00:50:23;0.28;;;0.28;;
64550;SDS011;74341;44.510;-123.270;2024-02-23T00:52:51;0.88;;;0.70;;
64550;SDS011;74341;44.510;-123.270;2024-02-23T00:55:18;0.47;;;0.43;;
64550;SDS011;74341;44.510;-123.270;2024-02-23T00:57:44;0.60;;;0.60;;
64550;SDS011;74341;44.510;-123.270;2024-02-23T01:00:11;0.32;;;0.32;;
64550;SDS011;74341;44.510;-123.270;2024-02-23T01:02:38;2.28;;;1.10;;
64550;SDS011;74341;44.510;-123.270;2024-02-23T01:05:05;0.70;;;0.60;;
64550;SDS011;74341;44.510;-123.270;2024-02-23T01:07:34;0.80;;;0.77;;
64550;SDS011;74341;44.510;-123.270;2024-02-23T01:10:01;1.17;;;1.13;;
64550;SDS011;74341;44.510;-123.270;2024-02-23T01:12:29;0.95;;;0.80;;
64550;SDS011;74341;44.510;-123.270;2024-02-23T01:14:55;0.85;;;0.80;;
64550;SDS011;74341;44.510;-123.270;2024-02-23T01:17:21;1.73;;;1.10;;
64550;SDS011;74341;44.510;-123.270;2024-02-23T01:19:48;2.47;;;0.90;;
64550;SDS011;74341;44.510;-123.270;2024-02-23T01:22:14;0.63;;;0.63;;
64550;SDS011;74341;44.510;-123.270;2024-02-23T01:24:41;2.60;;;0.65;;
64550;SDS011;74341;44.510;-123.270;2024-02-23T01:27:07;0.70;;;0.70;;
64550;SDS011;74341;44.510;-123.270;2024-02-23T01:29:33;0.60;;;0.60;;
64550;SDS011;74341;44.510;-123.270;2024-02-23T01:32:00;1.20;;;1.10;;
64550;SDS011;74341;44.510;-123.270;2024-02-23T01:34:26;4.05;;;0.80;;
64550;SDS011;74341;44.510;-123.270;2024-02-23T01:36:53;4.32;;;1.05;;
64550;SDS011;74341;44.510;-123.270;2024-02-23T01:41:46;1.67;;;1.48;;
64550;SDS011;74341;44.510;-123.270;2024-02-23T01:44:12;18.35;;;5.32;;
64550;SDS011;74341;44.510;-123.270;2024-02-23T01:46:40;16.90;;;5.65;;
64550;SDS011;74341;44.510;-123.270;2024-02-23T01:49:07;3.25;;;1.63;;
64550;SDS011;74341;44.510;-123.270;2024-02-23T01:51:34;3.38;;;1.60;;
64550;SDS011;74341;44.510;-123.270;2024-02-23T01:54:01;2.80;;;1.35;;
64550;SDS011;74341;44.510;-123.270;2024-02-23T01:56:28;3.10;;;1.15;;
64550;SDS011;74341;44.510;-123.270;2024-02-23T01:58:55;7.22;;;3.40;;
64550;SDS011;74341;44.510;-123.270;2024-02-23T02:01:22;7.07;;;2.58;;
64550;SDS011;74341;44.510;-123.270;2024-02-23T02:03:48;4.90;;;2.47;;
64550;SDS011;74341;44.510;-123.270;2024-02-23T02:06:15;5.28;;;2.38;;
64550;SDS011;74341;44.510;-123.270;2024-02-23T02:08:41;4.70;;;2.35;;
64550;SDS011;74341;44.510;-123.270;2024-02-23T02:11:08;5.15;;;2.10;;
64550;SDS011;74341;44.510;-123.270;2024-02-23T02:13:35;4.70;;;1.83;;
64550;SDS011;74341;44.510;-123.270;2024-02-23T02:16:01;4.63;;;1.92;;
64550;SDS011;74341;44.510;-123.270;2024-02-23T02:18:28;8.65;;;2.15;;
64550;SDS011;74341;44.510;-123.270;2024-02-23T02:20:56;5.00;;;1.27;;
64550;SDS011;74341;44.510;-123.270;2024-02-23T02:23:23;3.78;;;1.25;;
64550;SDS011;74341;44.510;-123.270;2024-02-23T02:25:52;6.93;;;1.27;;
64550;SDS011;74341;44.510;-123.270;2024-02-23T02:28:19;3.63;;;1.42;;
64550;SDS011;74341;44.510;-123.270;2024-02-23T02:30:46;2.33;;;1.45;;
64550;SDS011;74341;44.510;-123.270;2024-02-23T02:33:12;2.47;;;1.55;;
64550;SDS011;74341;44.510;-123.270;2024-02-23T02:35:38;1.58;;;1.48;;
64550;SDS011;74341;44.510;-123.270;2024-02-23T02:38:04;2.20;;;1.60;;
64550;SDS011;74341;44.510;-123.270;2024-02-23T02:40:31;3.30;;;1.50;;
64550;SDS011;74341;44.510;-123.270;2024-02-23T02:42:57;1.15;;;0.93;;
64550;SDS011;74341;44.510;-123.270;2024-02-23T02:45:24;3.25;;;1.30;;
64550;SDS011;74341;44.510;-123.270;2024-02-23T02:47:50;1.70;;;1.60;;
64550;SDS011;74341;44.510;-123.270;2024-02-23T02:50:17;1.95;;;1.58;;
64550;SDS011;74341;44.510;-123.270;2024-02-23T02:52:43;13.63;;;6.03;;
64550;SDS011;74341;44.510;-123.270;2024-02-23T02:55:09;14.93;;;6.32;;
64550;SDS011;74341;44.510;-123.270;2024-02-23T02:57:36;2.75;;;1.92;;
64550;SDS011;74341;44.510;-123.270;2024-02-23T03:00:03;2.45;;;1.60;;
64550;SDS011;74341;44.510;-123.270;2024-02-23T03:02:37;1.30;;;1.20;;
64550;SDS011;74341;44.510;-123.270;2024-02-23T03:05:03;1.10;;;1.00;;
64550;SDS011;74341;44.510;-123.270;2024-02-23T03:09:56;1.77;;;1.65;;
64550;SDS011;74341;44.510;-123.270;2024-02-23T03:12:22;1.55;;;1.45;;
64550;SDS011;74341;44.510;-123.270;2024-02-23T03:14:49;4.47;;;1.35;;
64550;SDS011;74341;44.510;-123.270;2024-02-23T03:17:15;2.67;;;1.00;;
64550;SDS011;74341;44.510;-123.270;2024-02-23T03:19:42;1.15;;;1.08;;
64550;SDS011;74341;44.510;-123.270;2024-02-23T03:22:09;2.55;;;1.42;;
64550;SDS011;74341;44.510;-123.270;2024-02-23T03:24:35;4.90;;;1.45;;
64550;SDS011;74341;44.510;-123.270;2024-02-23T03:27:02;2.03;;;1.08;;
64550;SDS011;74341;44.510;-123.270;2024-02-23T03:29:29;1.60;;;1.50;;
64550;SDS011;74341;44.510;-123.270;2024-02-23T03:31:55;1.42;;;1.33;;
64550;SDS011;74341;44.510;-123.270;2024-02-23T03:34:22;3.90;;;1.38;;
64550;SDS011;74341;44.510;-123.270;2024-02-23T03:36:52;1.05;;;1.00;;
64550;SDS011;74341;44.510;-123.270;2024-02-23T03:39:18;1.75;;;0.93;;
64550;SDS011;74341;44.510;-123.270;2024-02-23T03:41:44;1.17;;;1.05;;
64550;SDS011;74341;44.510;-123.270;2024-02-23T03:44:10;2.63;;;1.27;;
64550;SDS011;74341;44.510;-123.270;2024-02-23T03:46:37;3.25;;;1.73;;
64550;SDS011;74341;44.510;-123.270;2024-02-23T03:49:03;6.47;;;1.90;;
64550;SDS011;74341;44.510;-123.270;2024-02-23T03:51:30;5.20;;;1.67;;
64550;SDS011;74341;44.510;-123.270;2024-02-23T03:53:58;2.47;;;1.38;;
64550;SDS011;74341;44.510;-123.270;2024-02-23T03:56:24;2.75;;;1.67;;
64550;SDS011;74341;44.510;-123.270;2024-02-23T03:58:51;2.45;;;1.48;;
64550;SDS011;74341;44.510;-123.270;2024-02-23T04:01:17;8.20;;;3.85;;
64550;SDS011;74341;44.510;-123.270;2024-02-23T04:03:44;11.05;;;4.38;;
64550;SDS011;74341;44.510;-123.270;2024-02-23T04:06:10;4.90;;;2.03;;
64550;SDS011;74341;44.510;-123.270;2024-02-23T04:08:36;2.08;;;1.55;;
64550;SDS011;74341;44.510;-123.270;2024-02-23T04:11:03;11.73;;;3.63;;
64550;SDS011;74341;44.510;-123.270;2024-02-23T04:13:29;15.98;;;4.82;;
64550;SDS011;74341;44.510;-123.270;2024-02-23T04:15:55;12.85;;;3.30;;
64550;SDS011;74341;44.510;-123.270;2024-02-23T04:20:48;5.40;;;1.90;;
64550;SDS011;74341;44.510;-123.270;2024-02-23T04:23:15;3.47;;;1.38;;
64550;SDS011;74341;44.510;-123.270;2024-02-23T04:25:41;3.83;;;1.27;;
64550;SDS011;74341;44.510;-123.270;2024-02-23T04:28:07;2.75;;;1.40;;
64550;SDS011;74341;44.510;-123.270;2024-02-23T04:30:34;2.55;;;1.83;;
64550;SDS011;74341;44.510;-123.270;2024-02-23T04:33:00;1.75;;;1.45;;
64550;SDS011;74341;44.510;-123.270;2024-02-23T04:35:27;1.33;;;1.27;;
64550;SDS011;74341;44.510;-123.270;2024-02-23T04:37:53;4.40;;;1.42;;
64550;SDS011;74341;44.510;-123.270;2024-02-23T04:40:19;4.75;;;2.08;;
64550;SDS011;74341;44.510;-123.270;2024-02-23T04:42:46;5.60;;;2.13;;
64550;SDS011;74341;44.510;-123.270;2024-02-23T04:45:12;3.47;;;1.70;;
64550;SDS011;74341;44.510;-123.270;2024-02-23T04:47:40;1.42;;;1.33;;
64550;SDS011;74341;44.510;-123.270;2024-02-23T04:50:06;8.05;;;2.63;;
64550;SDS011;74341;44.510;-123.270;2024-02-23T04:52:34;14.27;;;4.28;;
64550;SDS011;74341;44.510;-123.270;2024-02-23T04:55:00;18.92;;;3.78;;
64550;SDS011;74341;44.510;-123.270;2024-02-23T04:57:26;12.50;;;3.05;;
64550;SDS011;74341;44.510;-123.270;2024-02-23T04:59:53;2.60;;;1.73;;
64550;SDS011;74341;44.510;-123.270;2024-02-23T05:02:19;3.55;;;1.23;;
64550;SDS011;74341;44.510;-123.270;2024-02-23T05:04:45;1.38;;;1.23;;
64550;SDS011;74341;44.510;-123.270;2024-02-23T05:07:12;3.03;;;0.95;;
64550;SDS011;74341;44.510;-123.270;2024-02-23T05:09:39;1.50;;;1.40;;
64550;SDS011;74341;44.510;-123.270;2024-02-23T05:12:07;1.30;;;1.20;;
64550;SDS011;74341;44.510;-123.270;2024-02-23T05:14:34;1.20;;;1.10;;
64550;SDS011;74341;44.510;-123.270;2024-02-23T05:17:00;1.75;;;1.30;;
64550;SDS011;74341;44.510;-123.270;2024-02-23T05:19:26;0.80;;;0.80;;
64550;SDS011;74341;44.510;-123.270;2024-02-23T05:21:53;1.77;;;1.27;;
64550;SDS011;74341;44.510;-123.270;2024-02-23T05:24:19;2.50;;;1.27;;
64550;SDS011;74341;44.510;-123.270;2024-02-23T05:26:45;1.38;;;1.27;;
64550;SDS011;74341;44.510;-123.270;2024-02-23T05:29:12;2.17;;;1.50;;
64550;SDS011;74341;44.510;-123.270;2024-02-23T05:31:46;1.65;;;1.15;;
64550;SDS011;74341;44.510;-123.270;2024-02-23T05:34:15;1.67;;;1.40;;
64550;SDS011;74341;44.510;-123.270;2024-02-23T05:36:41;1.95;;;1.17;;
64550;SDS011;74341;44.510;-123.270;2024-02-23T05:39:08;1.92;;;1.10;;
64550;SDS011;74341;44.510;-123.270;2024-02-23T05:41:35;1.60;;;1.10;;
64550;SDS011;74341;44.510;-123.270;2024-02-23T05:44:03;3.28;;;1.20;;
64550;SDS011;74341;44.510;-123.270;2024-02-23T05:46:31;4.45;;;2.10;;
64550;SDS011;74341;44.510;-123.270;2024-02-23T05:49:01;6.15;;;1.85;;
64550;SDS011;74341;44.510;-123.270;2024-02-23T05:51:31;5.50;;;2.30;;
64550;SDS011;74341;44.510;-123.270;2024-02-23T05:53:58;12.75;;;2.63;;
64550;SDS011;74341;44.510;-123.270;2024-02-23T05:56:24;3.60;;;1.88;;
64550;SDS011;74341;44.510;-123.270;2024-02-23T05:58:51;7.40;;;2.35;;
64550;SDS011;74341;44.510;-123.270;2024-02-23T06:01:18;1.88;;;1.38;;
64550;SDS011;74341;44.510;-123.270;2024-02-23T06:03:44;1.20;;;1.10;;
64550;SDS011;74341;44.510;-123.270;2024-02-23T06:06:11;0.90;;;0.90;;
64550;SDS011;74341;44.510;-123.270;2024-02-23T06:08:38;2.15;;;1.00;;
64550;SDS011;74341;44.510;-123.270;2024-02-23T06:11:04;1.30;;;0.98;;
64550;SDS011;74341;44.510;-123.270;2024-02-23T06:13:30;2.35;;;1.38;;
64550;SDS011;74341;44.510;-123.270;2024-02-23T06:15:57;0.82;;;0.80;;
64550;SDS011;74341;44.510;-123.270;2024-02-23T06:18:23;7.60;;;2.78;;
64550;SDS011;74341;44.510;-123.270;2024-02-23T06:20:50;13.18;;;4.07;;
64550;SDS011;74341;44.510;-123.270;2024-02-23T06:23:16;11.32;;;3.53;;
64550;SDS011;74341;44.510;-123.270;2024-02-23T06:25:43;9.30;;;2.95;;
64550;SDS011;74341;44.510;-123.270;2024-02-23T06:28:10;7.47;;;2.30;;
64550;SDS011;74341;44.510;-123.270;2024-02-23T06:30:37;3.15;;;1.85;;
64550;SDS011;74341;44.510;-123.270;2024-02-23T06:33:03;7.15;;;2.33;;
64550;SDS011;74341;44.510;-123.270;2024-02-23T06:35:32;6.57;;;2.20;;
64550;SDS011;74341;44.510;-123.270;2024-02-23T06:37:59;12.18;;;3.03;;
64550;SDS011;74341;44.510;-123.270;2024-02-23T06:40:25;10.18;;;2.92;;
64550;SDS011;74341;44.510;-123.270;2024-02-23T06:42:52;4.18;;;2.08;;
64550;SDS011;74341;44.510;-123.270;2024-02-23T06:45:18;6.10;;;2.22;;
64550;SDS011;74341;44.510;-123.270;2024-02-23T06:47:44;4.88;;;1.80;;
64550;SDS011;74341;44.510;-123.270;2024-02-23T06:50:11;3.88;;;1.80;;
64550;SDS011;74341;44.510;-123.270;2024-02-23T06:52:37;4.18;;;1.70;;
64550;SDS011;74341;44.510;-123.270;2024-02-23T06:55:04;11.10;;;3.00;;
64550;SDS011;74341;44.510;-123.270;2024-02-23T06:57:30;2.35;;;1.80;;
64550;SDS011;74341;44.510;-123.270;2024-02-23T06:59:57;9.93;;;3.53;;
64550;SDS011;74341;44.510;-123.270;2024-02-23T07:02:24;8.85;;;3.03;;
64550;SDS011;74341;44.510;-123.270;2024-02-23T07:04:50;6.38;;;2.65;;
64550;SDS011;74341;44.510;-123.270;2024-02-23T07:07:16;3.42;;;2.45;;
64550;SDS011;74341;44.510;-123.270;2024-02-23T07:09:43;8.20;;;2.65;;
64550;SDS011;74341;44.510;-123.270;2024-02-23T07:12:10;6.03;;;2.45;;
64550;SDS011;74341;44.510;-123.270;2024-02-23T07:14:38;1.83;;;1.65;;
64550;SDS011;74341;44.510;-123.270;2024-02-23T07:17:05;1.60;;;1.50;;
64550;SDS011;74341;44.510;-123.270;2024-02-23T07:19:33;3.40;;;1.80;;
64550;SDS011;74341;44.510;-123.270;2024-02-23T07:21:59;3.17;;;2.08;;
64550;SDS011;74341;44.510;-123.270;2024-02-23T07:24:27;5.18;;;2.05;;
64550;SDS011;74341;44.510;-123.270;2024-02-23T07:26:53;2.08;;;1.75;;
64550;SDS011;74341;44.510;-123.270;2024-02-23T07:29:20;3.72;;;1.70;;
64550;SDS011;74341;44.510;-123.270;2024-02-23T07:31:46;4.75;;;2.22;;
64550;SDS011;74341;44.510;-123.270;2024-02-23T07:34:12;2.33;;;2.03;;
64550;SDS011;74341;44.510;-123.270;2024-02-23T07:36:39;6.05;;;2.90;;
64550;SDS011;74341;44.510;-123.270;2024-02-23T07:39:05;4.05;;;2.08;;
64550;SDS011;74341;44.510;-123.270;2024-02-23T07:41:31;2.45;;;1.70;;
64550;SDS011;74341;44.510;-123.270;2024-02-23T07:43:58;13.32;;;4.50;;
64550;SDS011;74341;44.510;-123.270;2024-02-23T07:46:24;19.92;;;6.50;;
64550;SDS011;74341;44.510;-123.270;2024-02-23T07:48:50;2.40;;;1.80;;
64550;SDS011;74341;44.510;-123.270;2024-02-23T07:51:17;4.38;;;2.25;;
64550;SDS011;74341;44.510;-123.270;2024-02-23T07:53:44;2.90;;;2.45;;
64550;SDS011;74341;44.510;-123.270;2024-02-23T07:56:10;3.30;;;1.70;;
64550;SDS011;74341;44.510;-123.270;2024-02-23T08:01:03;2.10;;;1.75;;
64550;SDS011;74341;44.510;-123.270;2024-02-23T08:03:30;1.60;;;1.50;;
64550;SDS011;74341;44.510;-123.270;2024-02-23T08:05:57;3.50;;;2.00;;
64550;SDS011;74341;44.510;-123.270;2024-02-23T08:08:23;4.50;;;2.45;;
64550;SDS011;74341;44.510;-123.270;2024-02-23T08:10:51;3.28;;;2.10;;
64550;SDS011;74341;44.510;-123.270;2024-02-23T08:13:17;3.80;;;2.20;;
64550;SDS011;74341;44.510;-123.270;2024-02-23T08:15:43;2.80;;;1.90;;
64550;SDS011;74341;44.510;-123.270;2024-02-23T08:18:10;3.03;;;1.85;;
64550;SDS011;74341;44.510;-123.270;2024-02-23T08:20:36;2.63;;;1.80;;
64550;SDS011;74341;44.510;-123.270;2024-02-23T08:23:03;2.08;;;1.80;;
64550;SDS011;74341;44.510;-123.270;2024-02-23T08:25:29;1.88;;;1.77;;
64550;SDS011;74341;44.510;-123.270;2024-02-23T08:27:56;3.50;;;1.75;;
64550;SDS011;74341;44.510;-123.270;2024-02-23T08:30:24;2.80;;;2.10;;
64550;SDS011;74341;44.510;-123.270;2024-02-23T08:32:50;3.85;;;1.83;;
64550;SDS011;74341;44.510;-123.270;2024-02-23T08:35:17;2.38;;;2.00;;
64550;SDS011;74341;44.510;-123.270;2024-02-23T08:37:44;4.43;;;3.00;;
64550;SDS011;74341;44.510;-123.270;2024-02-23T08:40:10;2.45;;;1.73;;
64550;SDS011;74341;44.510;-123.270;2024-02-23T08:42:37;15.05;;;8.43;;
64550;SDS011;74341;44.510;-123.270;2024-02-23T08:45:03;12.07;;;5.15;;
64550;SDS011;74341;44.510;-123.270;2024-02-23T08:47:30;6.82;;;3.85;;
64550;SDS011;74341;44.510;-123.270;2024-02-23T08:50:01;4.63;;;2.75;;
64550;SDS011;74341;44.510;-123.270;2024-02-23T08:52:28;2.35;;;1.80;;
64550;SDS011;74341;44.510;-123.270;2024-02-23T08:54:54;2.30;;;1.90;;
64550;SDS011;74341;44.510;-123.270;2024-02-23T08:57:21;7.65;;;4.20;;
64550;SDS011;74341;44.510;-123.270;2024-02-23T08:59:48;11.23;;;5.85;;
64550;SDS011;74341;44.510;-123.270;2024-02-23T09:02:15;11.77;;;4.55;;
64550;SDS011;74341;44.510;-123.270;2024-02-23T09:04:41;3.58;;;2.47;;
64550;SDS011;74341;44.510;-123.270;2024-02-23T09:07:10;3.85;;;2.83;;
64550;SDS011;74341;44.510;-123.270;2024-02-23T09:09:36;3.08;;;2.60;;
64550;SDS011;74341;44.510;-123.270;2024-02-23T09:12:03;3.20;;;2.60;;
64550;SDS011;74341;44.510;-123.270;2024-02-23T09:14:32;2.40;;;2.20;;
64550;SDS011;74341;44.510;-123.270;2024-02-23T09:17:00;4.25;;;2.15;;
64550;SDS011;74341;44.510;-123.270;2024-02-23T09:19:27;3.25;;;2.67;;
64550;SDS011;74341;44.510;-123.270;2024-02-23T09:21:53;3.58;;;2.05;;
64550;SDS011;74341;44.510;-123.270;2024-02-23T09:24:41;2.05;;;1.90;;
64550;SDS011;74341;44.510;-123.270;2024-02-23T09:27:07;2.05;;;1.95;;
64550;SDS011;74341;44.510;-123.270;2024-02-23T09:29:34;2.60;;;1.95;;
64550;SDS011;74341;44.510;-123.270;2024-02-23T09:32:00;2.08;;;1.67;;
64550;SDS011;74341;44.510;-123.270;2024-02-23T09:34:27;1.75;;;1.63;;
64550;SDS011;74341;44.510;-123.270;2024-02-23T09:36:54;1.75;;;1.60;;
64550;SDS011;74341;44.510;-123.270;2024-02-23T09:39:21;2.58;;;1.63;;
64550;SDS011;74341;44.510;-123.270;2024-02-23T09:41:50;2.00;;;1.40;;
64550;SDS011;74341;44.510;-123.270;2024-02-23T09:44:16;1.85;;;1.75;;
64550;SDS011;74341;44.510;-123.270;2024-02-23T09:46:46;1.90;;;1.80;;
64550;SDS011;74341;44.510;-123.270;2024-02-23T09:49:13;2.33;;;1.88;;
64550;SDS011;74341;44.510;-123.270;2024-02-23T09:51:44;2.35;;;1.27;;
64550;SDS011;74341;44.510;-123.270;2024-02-23T09:54:10;1.27;;;1.17;;
64550;SDS011;74341;44.510;-123.270;2024-02-23T09:56:37;3.92;;;1.67;;
64550;SDS011;74341;44.510;-123.270;2024-02-23T09:59:05;2.17;;;1.80;;
64550;SDS011;74341;44.510;-123.270;2024-02-23T10:01:31;1.50;;;1.35;;
64550;SDS011;74341;44.510;-123.270;2024-02-23T10:03:59;2.72;;;1.75;;
64550;SDS011;74341;44.510;-123.270;2024-02-23T10:06:27;1.98;;;1.50;;
64550;SDS011;74341;44.510;-123.270;2024-02-23T10:08:54;1.23;;;1.13;;
64550;SDS011;74341;44.510;-123.270;2024-02-23T10:11:20;1.85;;;1.48;;
64550;SDS011;74341;44.510;-123.270;2024-02-23T10:13:47;3.72;;;1.60;;
64550;SDS011;74341;44.510;-123.270;2024-02-23T10:16:20;1.67;;;1.30;;
64550;SDS011;74341;44.510;-123.270;2024-02-23T10:18:48;3.30;;;1.40;;
64550;SDS011;74341;44.510;-123.270;2024-02-23T10:21:17;1.92;;;1.52;;
64550;SDS011;74341;44.510;-123.270;2024-02-23T10:23:44;1.50;;;1.40;;
64550;SDS011;74341;44.510;-123.270;2024-02-23T10:28:37;1.63;;;1.48;;
64550;SDS011;74341;44.510;-123.270;2024-02-23T10:31:06;2.13;;;1.77;;
64550;SDS011;74341;44.510;-123.270;2024-02-23T10:33:32;3.03;;;1.40;;
64550;SDS011;74341;44.510;-123.270;2024-02-23T10:36:01;2.60;;;1.42;;
64550;SDS011;74341;44.510;-123.270;2024-02-23T10:38:31;2.17;;;1.60;;
64550;SDS011;74341;44.510;-123.270;2024-02-23T10:40:58;1.42;;;1.33;;
64550;SDS011;74341;44.510;-123.270;2024-02-23T10:43:32;1.23;;;1.23;;
64550;SDS011;74341;44.510;-123.270;2024-02-23T10:46:01;2.70;;;1.30;;
64550;SDS011;74341;44.510;-123.270;2024-02-23T10:48:33;1.00;;;1.00;;
64550;SDS011;74341;44.510;-123.270;2024-02-23T10:51:01;1.20;;;1.10;;
64550;SDS011;74341;44.510;-123.270;2024-02-23T10:53:28;2.75;;;1.23;;
64550;SDS011;74341;44.510;-123.270;2024-02-23T10:55:56;2.45;;;1.27;;
64550;SDS011;74341;44.510;-123.270;2024-02-23T10:58:25;2.35;;;1.45;;
64550;SDS011;74341;44.510;-123.270;2024-02-23T11:00:52;1.75;;;1.50;;
64550;SDS011;74341;44.510;-123.270;2024-02-23T11:03:27;1.80;;;1.58;;
64550;SDS011;74341;44.510;-123.270;2024-02-23T11:05:55;2.17;;;1.25;;
64550;SDS011;74341;44.510;-123.270;2024-02-23T11:08:21;1.92;;;1.17;;
64550;SDS011;74341;44.510;-123.270;2024-02-23T11:10:50;2.42;;;1.42;;
64550;SDS011;74341;44.510;-123.270;2024-02-23T11:13:17;3.42;;;1.90;;
64550;SDS011;74341;44.510;-123.270;2024-02-23T11:15:44;2.25;;;1.65;;
64550;SDS011;74341;44.510;-123.270;2024-02-23T11:18:23;1.80;;;1.27;;
64550;SDS011;74341;44.510;-123.270;2024-02-23T11:21:00;5.22;;;2.50;;
64550;SDS011;74341;44.510;-123.270;2024-02-23T11:23:48;2.67;;;1.70;;
64550;SDS011;74341;44.510;-123.270;2024-02-23T11:26:19;7.10;;;2.17;;
64550;SDS011;74341;44.510;-123.270;2024-02-23T11:31:15;3.08;;;2.03;;
64550;SDS011;74341;44.510;-123.270;2024-02-23T11:33:54;2.17;;;1.83;;
64550;SDS011;74341;44.510;-123.270;2024-02-23T11:36:22;3.83;;;2.03;;
64550;SDS011;74341;44.510;-123.270;2024-02-23T11:41:19;3.03;;;1.52;;
64550;SDS011;74341;44.510;-123.270;2024-02-23T11:43:46;19.58;;;6.68;;
64550;SDS011;74341;44.510;-123.270;2024-02-23T11:46:14;6.88;;;3.00;;
64550;SDS011;74341;44.510;-123.270;2024-02-23T11:48:42;4.70;;;2.70;;
64550;SDS011;74341;44.510;-123.270;2024-02-23T11:56:05;5.25;;;2.90;;
64550;SDS011;74341;44.510;-123.270;2024-02-23T11:58:34;4.30;;;2.58;;
64550;SDS011;74341;44.510;-123.270;2024-02-23T12:01:01;6.20;;;3.15;;
64550;SDS011;74341;44.510;-123.270;2024-02-23T12:03:28;5.30;;;2.53;;
64550;SDS011;74341;44.510;-123.270;2024-02-23T12:05:58;3.53;;;2.60;;
64550;SDS011;74341;44.510;-123.270;2024-02-23T12:08:26;5.28;;;2.13;;
64550;SDS011;74341;44.510;-123.270;2024-02-23T12:10:54;4.00;;;2.10;;
64550;SDS011;74341;44.510;-123.270;2024-02-23T12:13:21;4.03;;;2.10;;
64550;SDS011;74341;44.510;-123.270;2024-02-23T12:15:48;1.70;;;1.60;;
64550;SDS011;74341;44.510;-123.270;2024-02-23T12:18:18;2.63;;;1.13;;
64550;SDS011;74341;44.510;-123.270;2024-02-23T12:20:49;1.50;;;1.40;;
64550;SDS011;74341;44.510;-123.270;2024-02-23T12:23:15;2.58;;;1.45;;
64550;SDS011;74341;44.510;-123.270;2024-02-23T12:25:54;2.08;;;1.85;;
64550;SDS011;74341;44.510;-123.270;2024-02-23T12:28:24;1.45;;;1.35;;
64550;SDS011;74341;44.510;-123.270;2024-02-23T12:31:00;4.15;;;1.55;;
64550;SDS011;74341;44.510;-123.270;2024-02-23T12:33:28;2.45;;;1.52;;
64550;SDS011;74341;44.510;-123.270;2024-02-23T12:35:55;1.73;;;1.63;;
64550;SDS011;74341;44.510;-123.270;2024-02-23T12:38:22;4.55;;;1.50;;
64550;SDS011;74341;44.510;-123.270;2024-02-23T12:40:51;1.30;;;1.20;;
64550;SDS011;74341;44.510;-123.270;2024-02-23T12:43:18;1.75;;;1.50;;
64550;SDS011;74341;44.510;-123.270;2024-02-23T12:45:52;1.90;;;1.30;;
64550;SDS011;74341;44.510;-123.270;2024-02-23T12:48:22;1.77;;;1.60;;
64550;SDS011;74341;44.510;-123.270;2024-02-23T12:50:49;1.30;;;1.20;;
64550;SDS011;74341;44.510;-123.270;2024-02-23T12:56:22;2.17;;;1.15;;
64550;SDS011;74341;44.510;-123.270;2024-02-23T12:58:47;1.42;;;1.05;;
64550;SDS011;74341;44.510;-123.270;2024-02-23T13:01:14;1.75;;;1.17;;
64550;SDS011;74341;44.510;-123.270;2024-02-23T13:03:40;3.38;;;1.60;;
64550;SDS011;74341;44.510;-123.270;2024-02-23T13:06:07;2.05;;;1.13;;
64550;SDS011;74341;44.510;-123.270;2024-02-23T13:08:33;5.93;;;1.38;;
64550;SDS011;74341;44.510;-123.270;2024-02-23T13:11:00;4.97;;;1.30;;
64550;SDS011;74341;44.510;-123.270;2024-02-23T13:13:27;2.72;;;1.55;;
64550;SDS011;74341;44.510;-123.270;2024-02-23T13:15:54;3.95;;;1.75;;
64550;SDS011;74341;44.510;-123.270;2024-02-23T13:18:20;2.25;;;1.83;;
64550;SDS011;74341;44.510;-123.270;2024-02-23T13:20:47;2.25;;;1.48;;
64550;SDS011;74341;44.510;-123.270;2024-02-23T13:23:13;1.70;;;1.50;;
64550;SDS011;74341;44.510;-123.270;2024-02-23T13:25:41;3.92;;;2.15;;
64550;SDS011;74341;44.510;-123.270;2024-02-23T13:28:08;2.40;;;2.17;;
64550;SDS011;74341;44.510;-123.270;2024-02-23T13:30:34;6.57;;;2.50;;
64550;SDS011;74341;44.510;-123.270;2024-02-23T13:33:02;5.53;;;2.38;;
64550;SDS011;74341;44.510;-123.270;2024-02-23T13:35:29;2.40;;;2.00;;
64550;SDS011;74341;44.510;-123.270;2024-02-23T13:37:55;5.80;;;2.63;;
64550;SDS011;74341;44.510;-123.270;2024-02-23T13:40:23;4.53;;;2.33;;
64550;SDS011;74341;44.510;-123.270;2024-02-23T13:42:49;4.53;;;2.58;;
64550;SDS011;74341;44.510;-123.270;2024-02-23T13:45:15;2.28;;;1.92;;
64550;SDS011;74341;44.510;-123.270;2024-02-23T13:47:42;2.30;;;1.33;;
64550;SDS011;74341;44.510;-123.270;2024-02-23T13:50:20;4.28;;;2.53;;
64550;SDS011;74341;44.510;-123.270;2024-02-23T13:52:47;3.75;;;2.33;;
64550;SDS011;74341;44.510;-123.270;2024-02-23T13:55:13;2.17;;;1.60;;
64550;SDS011;74341;44.510;-123.270;2024-02-23T13:57:40;1.95;;;1.58;;
64550;SDS011;74341;44.510;-123.270;2024-02-23T14:00:06;6.65;;;1.20;;
64550;SDS011;74341;44.510;-123.270;2024-02-23T14:02:37;1.55;;;1.40;;
64550;SDS011;74341;44.510;-123.270;2024-02-23T14:05:06;2.40;;;1.25;;
64550;SDS011;74341;44.510;-123.270;2024-02-23T14:07:33;3.30;;;1.35;;
64550;SDS011;74341;44.510;-123.270;2024-02-23T14:09:59;1.40;;;1.30;;
64550;SDS011;74341;44.510;-123.270;2024-02-23T14:12:27;5.43;;;1.65;;
64550;SDS011;74341;44.510;-123.270;2024-02-23T14:14:54;2.20;;;1.60;;
64550;SDS011;74341;44.510;-123.270;2024-02-23T14:17:20;7.78;;;2.80;;
64550;SDS011;74341;44.510;-123.270;2024-02-23T14:19:47;4.85;;;2.60;;
64550;SDS011;74341;44.510;-123.270;2024-02-23T14:22:13;3.58;;;2.38;;
64550;SDS011;74341;44.510;-123.270;2024-02-23T14:24:40;8.55;;;3.05;;
64550;SDS011;74341;44.510;-123.270;2024-02-23T14:27:06;4.90;;;2.63;;
64550;SDS011;74341;44.510;-123.270;2024-02-23T14:29:34;6.60;;;2.55;;
64550;SDS011;74341;44.510;-123.270;2024-02-23T14:32:00;2.88;;;1.83;;
64550;SDS011;74341;44.510;-123.270;2024-02-23T14:34:27;4.20;;;2.00;;
64550;SDS011;74341;44.510;-123.270;2024-02-23T14:36:54;3.92;;;1.88;;
64550;SDS011;74341;44.510;-123.270;2024-02-23T14:41:48;2.53;;;2.03;;
64550;SDS011;74341;44.510;-123.270;2024-02-23T14:44:14;2.28;;;1.67;;